Portada
METAR-TAF:

METAR-TAF

Aeroports :

Payam

Karaj, Iran

latitud: 35-46-34N, longitud: 050-49-36E, altitud: 1271 m

Observació

L'informe es va fer fa 54 minuts, a les 17:00 UTC
Vent calma
Temperatura 30°C
Humitat 15%
Pressió 1013 hPa
Visibilitat 10 km o més
Escasses núvols a una alçada de 4000 ft
Núvols disperses a una alçada de 10000 ft

METAR: OIIP 291700Z 00000KT 9999 FEW040 SCT100 30/01 Q1013 A2992

Hora: 22:24 (17:54 UTC)


TAF: manca

Observacions i pronòstics meteorològics de més de 4000 aeroports (METAR i TAF).

Les estacions disponibles són els punts grocs i vermells al mapa.

Posi el ratolí al punt desitjat per veure el nom de l'estació.

Feu clic per veure les observacions i els pronòstics meteorològics.

Per canviar el mapa: feu clic els botons verds amb una creu de color negre per apropar; al botó verd amb un guió per allunyar la imatge; o en les fletxes verdes per a mapes adjacents.


METAR-TAF: